Time;durP1;ratioP1;P1;durP2;ratioP2;P2;SDS_P1;SDS_P2;PMS_P1;PMS_P2;Temp;Humidity;BMP_temperature;BMP_pressure;BME280_temperature;BME280_humidity;BME280_pressure;Samples;Min_cycle;Max_cycle;Signal;HPM_P1;HPM_P2
2023/10/19 00:01:27;;;;;;;22.02;14.20;;;10.40;99.90;;;;;;5008238;28;20080;-65
2023/10/19 00:03:55;;;;;;;23.95;13.63;;;10.30;99.90;;;;;;5007053;28;20022;-65
2023/10/19 00:06:25;;;;;;;28.10;14.10;;;10.30;99.90;;;;;;5006956;28;20030;-65
2023/10/19 00:08:53;;;;;;;26.15;14.25;;;10.20;99.90;;;;;;5008606;28;20041;-65
2023/10/19 00:11:24;;;;;;;25.08;14.07;;;10.30;99.90;;;;;;5010359;28;20215;-65
2023/10/19 00:13:59;;;;;;;22.52;13.63;;;10.20;99.90;;;;;;5009354;28;20022;-65
2023/10/19 00:16:30;;;;;;;23.98;14.52;;;10.30;99.90;;;;;;5005061;28;20026;-65
2023/10/19 00:18:59;;;;;;;24.92;13.73;;;10.20;99.90;;;;;;5010713;28;20034;-65
2023/10/19 00:21:27;;;;;;;33.83;14.38;;;10.30;99.90;;;;;;5008617;28;20021;-65
2023/10/19 00:23:58;;;;;;;26.27;14.80;;;10.30;99.90;;;;;;5008868;28;20044;-65
2023/10/19 00:26:25;;;;;;;24.90;14.90;;;10.30;99.90;;;;;;5005778;28;20080;-65
2023/10/19 00:28:57;;;;;;;29.63;15.67;;;10.30;99.90;;;;;;5009757;28;20053;-65
2023/10/19 00:31:27;;;;;;;24.67;14.75;;;10.30;99.90;;;;;;5007975;28;20271;-65
2023/10/19 00:33:56;;;;;;;25.15;14.57;;;10.20;99.90;;;;;;5006419;28;20030;-64
2023/10/19 00:36:26;;;;;;;26.80;13.73;;;10.20;99.90;;;;;;5007004;28;20038;-64
2023/10/19 00:38:56;;;;;;;24.42;14.40;;;10.20;99.90;;;;;;5009103;28;20033;-65
2023/10/19 00:41:29;;;;;;;29.67;15.48;;;10.20;99.90;;;;;;5008647;28;20033;-65
2023/10/19 00:44:00;;;;;;;28.58;14.13;;;10.10;99.90;;;;;;5007901;28;20037;-65
2023/10/19 00:46:32;;;;;;;25.60;15.38;;;10.10;99.90;;;;;;5008272;28;20096;-65
2023/10/19 00:49:05;;;;;;;26.15;14.20;;;10.20;99.90;;;;;;5006122;28;20037;-65
2023/10/19 00:54:15;;;;;;;23.98;15.45;;;10.20;99.90;;;;;;5006784;28;20447;-65
2023/10/19 00:56:49;;;;;;;31.58;16.30;;;10.20;99.90;;;;;;5009666;28;20041;-65
2023/10/19 00:59:24;;;;;;;30.85;15.48;;;10.10;99.90;;;;;;5008158;28;20018;-65
2023/10/19 01:01:55;;;;;;;27.05;16.02;;;10.10;99.90;;;;;;5009486;28;20022;-64
2023/10/19 01:04:31;;;;;;;28.45;16.65;;;10.00;99.90;;;;;;5001842;28;20049;-65
2023/10/19 01:07:15;;;;;;;34.00;17.90;;;9.90;99.90;;;;;;5007244;28;20033;-65
2023/10/19 01:09:44;;;;;;;26.33;16.35;;;9.90;99.90;;;;;;5008096;28;20048;-65
2023/10/19 01:15:23;;;;;;;28.35;16.33;;;9.90;99.90;;;;;;5004503;28;20392;-65
2023/10/19 01:17:52;;;;;;;31.08;16.42;;;9.90;99.90;;;;;;5012279;28;20064;-65
2023/10/19 01:28:28;;;;;;;30.13;17.55;;;9.80;99.90;;;;;;5007266;28;20026;-65
2023/10/19 01:30:54;;;;;;;30.70;17.20;;;9.90;99.90;;;;;;5009482;28;20022;-65
2023/10/19 01:33:22;;;;;;;30.02;17.73;;;9.90;99.90;;;;;;5008327;28;20160;-65
2023/10/19 01:38:35;;;;;;;32.00;17.40;;;9.90;99.90;;;;;;5009570;28;20523;-65
2023/10/19 01:41:07;;;;;;;30.60;16.92;;;9.80;99.90;;;;;;5008027;28;20056;-65
2023/10/19 01:43:36;;;;;;;35.75;18.58;;;9.90;99.90;;;;;;5008937;28;20415;-65
2023/10/19 01:46:11;;;;;;;29.67;17.00;;;9.80;99.90;;;;;;5008821;28;20478;-65
2023/10/19 01:48:45;;;;;;;33.40;18.27;;;9.70;99.90;;;;;;5010043;28;20056;-65
2023/10/19 01:51:13;;;;;;;32.97;17.52;;;9.70;99.90;;;;;;5003792;28;20088;-64
2023/10/19 01:53:42;;;;;;;31.20;17.55;;;9.60;99.90;;;;;;5009484;28;20030;-64
2023/10/19 01:56:09;;;;;;;29.60;17.73;;;9.50;99.90;;;;;;5011854;28;20423;-65
2023/10/19 01:58:41;;;;;;;29.92;18.13;;;9.50;99.90;;;;;;5011413;28;20022;-65
2023/10/19 02:01:29;;;;;;;29.35;17.38;;;9.60;99.90;;;;;;5011810;28;20026;-65
2023/10/19 02:04:05;;;;;;;32.63;18.83;;;9.60;99.90;;;;;;5011920;28;20042;-65
2023/10/19 02:09:00;;;;;;;;;;;9.50;99.90;;;;;;5012789;28;20026;-64
2023/10/19 02:11:27;;;;;;;32.77;18.27;;;9.50;99.90;;;;;;5008999;28;19936;-65
2023/10/19 02:14:04;;;;;;;36.58;18.77;;;9.50;99.90;;;;;;5012067;28;20401;-65
2023/10/19 02:16:32;;;;;;;38.50;20.33;;;9.40;99.90;;;;;;5012422;28;20068;-65
2023/10/19 02:18:58;;;;;;;42.65;19.42;;;9.40;99.90;;;;;;5005908;28;20053;-70
2023/10/19 02:21:30;;;;;;;39.15;19.42;;;9.50;99.90;;;;;;5014221;28;20407;-72
2023/10/19 02:23:57;;;;;;;38.70;21.40;;;9.50;99.90;;;;;;5005485;28;20096;-71
2023/10/19 02:26:25;;;;;;;34.50;19.52;;;9.50;99.90;;;;;;5015002;28;20029;-71
2023/10/19 02:28:51;;;;;;;37.20;21.02;;;9.60;99.90;;;;;;5014084;28;20036;-71
2023/10/19 02:31:25;;;;;;;36.33;19.42;;;9.60;99.90;;;;;;5013575;28;20030;-71
2023/10/19 02:33:52;;;;;;;41.60;21.05;;;9.50;99.90;;;;;;5012299;28;20550;-71
2023/10/19 02:36:28;;;;;;;38.55;20.65;;;9.60;99.90;;;;;;5009843;28;20037;-71
2023/10/19 02:38:58;;;;;;;38.22;21.38;;;9.50;99.90;;;;;;5007443;28;20022;-71
2023/10/19 02:41:27;;;;;;;36.42;20.15;;;9.50;99.90;;;;;;5013839;28;20018;-71
2023/10/19 02:46:38;;;;;;;37.90;20.67;;;9.50;99.90;;;;;;5011396;28;20034;-71
2023/10/19 02:49:11;;;;;;;40.22;21.42;;;9.50;99.90;;;;;;5015261;28;20022;-71
2023/10/19 02:51:44;;;;;;;35.75;20.35;;;9.60;99.90;;;;;;5007576;28;20073;-71
2023/10/19 02:54:18;;;;;;;36.00;19.88;;;9.50;99.90;;;;;;5012515;28;20030;-71
2023/10/19 02:56:49;;;;;;;37.15;20.77;;;9.50;99.90;;;;;;5015535;28;20431;-70
2023/10/19 02:59:22;;;;;;;37.38;21.15;;;9.60;99.90;;;;;;5013942;28;20465;-70
2023/10/19 03:01:52;;;;;;;41.03;21.58;;;9.60;99.90;;;;;;5010026;28;20026;-70
2023/10/19 03:04:17;;;;;;;38.30;19.70;;;9.60;99.90;;;;;;5013427;28;20018;-73
2023/10/19 03:06:43;;;;;;;39.25;21.58;;;9.60;99.90;;;;;;5014852;28;20026;-70
2023/10/19 03:12:10;;;;;;;40.65;21.23;;;9.70;99.90;;;;;;5011692;28;20041;-71
2023/10/19 03:14:37;;;;;;;38.38;21.52;;;9.70;99.90;;;;;;5010904;28;20030;-71
2023/10/19 03:17:03;;;;;;;36.15;20.25;;;9.60;99.90;;;;;;5012095;28;20358;-70
2023/10/19 03:19:34;;;;;;;38.00;21.15;;;9.50;99.90;;;;;;5007652;28;20563;-71
2023/10/19 03:22:00;;;;;;;41.38;21.42;;;9.60;99.90;;;;;;5012458;28;20536;-70
2023/10/19 03:24:40;;;;;;;38.28;21.80;;;9.60;99.90;;;;;;5013407;28;20060;-71
2023/10/19 03:27:18;;;;;;;39.00;21.27;;;9.60;99.90;;;;;;5012651;28;20034;-70
2023/10/19 03:29:54;;;;;;;39.55;22.40;;;9.70;99.90;;;;;;5009684;28;20369;-70
2023/10/19 03:32:28;;;;;;;41.67;21.55;;;9.60;99.90;;;;;;5010220;28;20042;-71
2023/10/19 03:35:01;;;;;;;37.38;21.27;;;9.60;99.90;;;;;;5011068;28;20018;-71
2023/10/19 03:37:30;;;;;;;39.00;21.38;;;9.60;99.90;;;;;;5007894;28;20349;-70
2023/10/19 03:39:56;;;;;;;42.53;22.25;;;9.70;99.90;;;;;;5009684;28;20622;-70
2023/10/19 03:42:25;;;;;;;39.50;22.50;;;9.70;99.90;;;;;;5010943;28;20460;-71
2023/10/19 03:44:55;;;;;;;35.95;19.67;;;9.60;99.90;;;;;;5009040;28;20030;-70
2023/10/19 03:47:25;;;;;;;38.67;21.80;;;9.60;99.90;;;;;;5008052;28;20018;-70
2023/10/19 03:49:51;;;;;;;37.17;21.40;;;9.60;99.90;;;;;;5010861;28;20068;-71
2023/10/19 03:54:43;;;;;;;39.22;21.60;;;9.70;99.90;;;;;;5013825;28;20419;-71
2023/10/19 03:57:24;;;;;;;35.47;20.25;;;9.70;99.90;;;;;;5009484;28;20088;-71
2023/10/19 03:59:52;;;;;;;39.92;22.42;;;9.70;99.90;;;;;;5013187;28;20029;-71
2023/10/19 04:02:20;;;;;;;36.10;21.42;;;9.60;99.90;;;;;;5011549;28;20030;-71
2023/10/19 04:04:48;;;;;;;42.13;20.95;;;9.60;99.90;;;;;;5008861;28;20045;-71
2023/10/19 04:07:21;;;;;;;37.95;21.50;;;9.70;99.90;;;;;;5011090;28;20112;-71
2023/10/19 04:10:09;;;;;;;37.17;21.13;;;9.50;99.90;;;;;;5015646;28;20071;-71
2023/10/19 04:12:42;;;;;;;40.65;21.27;;;9.50;99.90;;;;;;5010474;28;20475;-71
2023/10/19 04:15:16;;;;;;;35.72;20.60;;;9.50;99.90;;;;;;5009800;28;20044;-71
2023/10/19 04:17:45;;;;;;;35.08;20.25;;;9.50;99.90;;;;;;5009301;28;20021;-71
2023/10/19 04:22:42;;;;;;;37.38;20.35;;;9.50;99.90;;;;;;5012526;28;20476;-71
2023/10/19 04:25:12;;;;;;;34.92;19.75;;;9.40;99.90;;;;;;5008314;28;20117;-71
2023/10/19 04:27:43;;;;;;;37.42;20.42;;;9.40;99.90;;;;;;5008960;28;20076;-71
2023/10/19 04:30:15;;;;;;;34.40;20.25;;;9.50;99.90;;;;;;5007818;28;20091;-71
2023/10/19 04:32:47;;;;;;;32.20;19.15;;;9.50;99.90;;;;;;5010109;28;20022;-71
2023/10/19 04:35:21;;;;;;;39.75;19.85;;;9.40;99.90;;;;;;5008364;28;21218;-71
2023/10/19 04:37:48;;;;;;;36.38;20.73;;;9.40;99.90;;;;;;5009276;28;20454;-71
2023/10/19 04:40:13;;;;;;;37.97;20.25;;;9.40;99.90;;;;;;5008264;28;20116;-72
2023/10/19 04:42:39;;;;;;;34.63;19.33;;;9.40;99.90;;;;;;5007252;28;20093;-71
2023/10/19 04:45:08;;;;;;;34.15;20.08;;;9.40;99.90;;;;;;5012469;28;20149;-71
2023/10/19 04:47:37;;;;;;;36.15;20.23;;;9.40;99.90;;;;;;5007726;28;20156;-71
2023/10/19 04:50:02;;;;;;;;;;;9.40;99.90;;;;;;5010152;28;20026;-71
2023/10/19 04:52:28;;;;;;;38.35;19.08;;;9.30;99.90;;;;;;5011992;28;19925;-71
2023/10/19 04:54:54;;;;;;;35.50;19.75;;;9.30;99.90;;;;;;5007858;28;20500;-71
2023/10/19 04:57:23;;;;;;;34.75;19.52;;;9.30;99.90;;;;;;5009031;28;20032;-71
2023/10/19 04:59:49;;;;;;;34.60;20.50;;;9.30;99.90;;;;;;5011590;28;20372;-71
2023/10/19 05:02:14;;;;;;;33.08;18.33;;;9.30;99.90;;;;;;5012454;28;20028;-71
2023/10/19 05:04:45;;;;;;;33.45;18.83;;;9.40;99.90;;;;;;5007541;28;20077;-71
2023/10/19 05:07:16;;;;;;;28.08;17.02;;;9.40;99.90;;;;;;5010173;28;20464;-71
2023/10/19 05:09:45;;;;;;;29.48;17.13;;;9.40;99.90;;;;;;5012157;28;20042;-71
2023/10/19 05:12:14;;;;;;;27.40;16.17;;;9.30;99.90;;;;;;5009124;28;20121;-71
2023/10/19 05:14:43;;;;;;;29.65;17.73;;;9.30;99.90;;;;;;5009370;28;20029;-71
2023/10/19 05:17:10;;;;;;;29.48;17.35;;;9.20;99.90;;;;;;5029636;28;20708;-71
2023/10/19 05:19:37;;;;;;;29.13;16.77;;;9.30;99.90;;;;;;5004642;28;20028;-71
2023/10/19 05:22:04;;;;;;;26.25;15.23;;;9.30;99.90;;;;;;5010628;28;20391;-70
2023/10/19 05:24:30;;;;;;;26.02;15.70;;;9.40;99.90;;;;;;5013173;28;20034;-70
2023/10/19 05:26:56;;;;;;;25.42;14.93;;;9.30;99.90;;;;;;5010194;28;20084;-70
2023/10/19 05:29:23;;;;;;;28.52;15.57;;;9.30;99.90;;;;;;5010994;28;20100;-71
2023/10/19 05:31:53;;;;;;;26.08;15.32;;;9.30;99.90;;;;;;5014885;28;20924;-71
2023/10/19 05:34:20;;;;;;;24.70;14.93;;;9.30;99.90;;;;;;5011077;28;20499;-71
2023/10/19 05:36:48;;;;;;;23.73;14.57;;;9.30;99.90;;;;;;5013879;28;20026;-71
2023/10/19 05:39:17;;;;;;;;;;;9.30;99.90;;;;;;5011431;28;20275;-71
2023/10/19 05:41:46;;;;;;;21.80;13.55;;;9.40;99.90;;;;;;5011814;28;19917;-71
2023/10/19 05:44:11;;;;;;;24.00;14.13;;;9.30;99.90;;;;;;5011131;28;20026;-71
2023/10/19 05:46:38;;;;;;;21.88;13.52;;;9.40;99.90;;;;;;5009870;28;20030;-71
2023/10/19 05:49:06;;;;;;;20.75;13.18;;;9.40;99.90;;;;;;5008565;28;20036;-71
2023/10/19 05:51:32;;;;;;;21.85;13.43;;;9.40;99.90;;;;;;5008690;28;20108;-71
2023/10/19 05:54:04;;;;;;;26.00;13.80;;;9.40;99.90;;;;;;5014366;28;20161;-71
2023/10/19 05:56:31;;;;;;;20.75;13.07;;;9.40;99.90;;;;;;5008961;28;20030;-71
2023/10/19 05:58:57;;;;;;;20.73;12.80;;;9.40;99.90;;;;;;5014338;28;20500;-70
2023/10/19 06:01:26;;;;;;;23.20;13.35;;;9.40;99.90;;;;;;5011886;28;20053;-71
2023/10/19 06:03:58;;;;;;;20.83;13.23;;;9.40;99.90;;;;;;5010274;28;20034;-71
2023/10/19 06:06:26;;;;;;;21.67;13.40;;;9.50;99.90;;;;;;5007493;28;20065;-71
2023/10/19 06:08:53;;;;;;;21.40;12.55;;;9.40;99.90;;;;;;5009341;28;20038;-71
2023/10/19 06:11:22;;;;;;;22.55;12.73;;;9.40;99.90;;;;;;5015463;28;20045;-71
2023/10/19 06:13:48;;;;;;;22.45;12.70;;;9.50;99.90;;;;;;5008947;28;20471;-71
2023/10/19 06:16:14;;;;;;;19.92;11.93;;;9.50;99.90;;;;;;5007648;28;20026;-71
2023/10/19 06:18:40;;;;;;;19.63;12.45;;;9.40;99.90;;;;;;5008826;28;20029;-71
2023/10/19 06:21:05;;;;;;;21.35;11.75;;;9.40;99.90;;;;;;5011972;28;20018;-71
2023/10/19 06:23:33;;;;;;;20.50;12.50;;;9.40;99.90;;;;;;5006112;28;20026;-71
2023/10/19 06:26:04;;;;;;;22.52;12.40;;;9.40;99.90;;;;;;5010850;28;20033;-71
2023/10/19 06:28:33;;;;;;;19.02;11.68;;;9.40;99.90;;;;;;5011406;28;20022;-71
2023/10/19 06:30:58;;;;;;;17.33;11.48;;;9.40;99.90;;;;;;5007255;28;20125;-70
2023/10/19 06:33:26;;;;;;;16.92;10.68;;;9.40;99.90;;;;;;5010257;28;20547;-72
2023/10/19 06:35:52;;;;;;;;;;;9.40;99.90;;;;;;5007992;28;20034;-71
2023/10/19 06:38:20;;;;;;;22.75;10.27;;;9.50;99.90;;;;;;5015205;28;19909;-71
2023/10/19 06:40:46;;;;;;;17.23;10.27;;;9.50;99.90;;;;;;5008870;28;20476;-71
2023/10/19 06:43:11;;;;;;;16.50;9.80;;;9.40;99.90;;;;;;5012772;28;20045;-71
2023/10/19 06:45:37;;;;;;;13.52;8.88;;;9.40;99.90;;;;;;5016671;28;20030;-71
2023/10/19 06:48:03;;;;;;;13.57;8.90;;;9.40;99.90;;;;;;5013542;28;20547;-71
2023/10/19 06:50:30;;;;;;;14.18;9.20;;;9.40;99.90;;;;;;5021741;28;20033;-71
2023/10/19 06:52:57;;;;;;;19.15;9.75;;;9.40;99.90;;;;;;5011324;28;21802;-71
2023/10/19 06:55:23;;;;;;;14.50;9.55;;;9.40;99.90;;;;;;5031953;28;20076;-71
2023/10/19 06:57:53;;;;;;;13.18;8.63;;;9.40;99.90;;;;;;5009167;28;20512;-71
2023/10/19 07:00:20;;;;;;;15.20;9.30;;;9.40;99.90;;;;;;5012373;28;20026;-71
2023/10/19 07:02:50;;;;;;;13.05;8.95;;;9.40;99.90;;;;;;5011599;28;20029;-71
2023/10/19 07:05:29;;;;;;;13.35;8.20;;;9.40;99.90;;;;;;5012112;28;20754;-71
2023/10/19 07:07:59;;;;;;;12.02;7.80;;;9.40;99.90;;;;;;5009904;28;20388;-72
2023/10/19 07:10:27;;;;;;;12.82;7.88;;;9.40;99.90;;;;;;5006307;28;20029;-71
2023/10/19 07:12:53;;;;;;;14.82;8.20;;;9.40;99.90;;;;;;5011116;28;20022;-71
2023/10/19 07:15:23;;;;;;;12.18;7.78;;;9.40;99.90;;;;;;5010804;28;20037;-71
2023/10/19 07:17:52;;;;;;;11.98;7.63;;;9.50;99.90;;;;;;5013850;28;20152;-71
2023/10/19 07:20:28;;;;;;;13.43;7.57;;;9.50;99.90;;;;;;5010658;28;20026;-71
2023/10/19 07:25:59;;;;;;;14.07;8.32;;;9.60;99.90;;;;;;5007931;28;20091;-71
2023/10/19 07:28:31;;;;;;;13.60;7.72;;;9.60;99.90;;;;;;5009630;28;20079;-71
2023/10/19 07:30:57;;;;;;;11.00;7.78;;;9.60;99.90;;;;;;5008134;28;20025;-71
2023/10/19 07:33:27;;;;;;;11.52;7.60;;;9.60;99.90;;;;;;5022149;28;20030;-71
2023/10/19 07:35:59;;;;;;;11.60;7.85;;;9.60;99.90;;;;;;5011390;28;20109;-71
2023/10/19 07:38:28;;;;;;;11.35;6.50;;;9.50;99.90;;;;;;5010373;28;20022;-71
2023/10/19 07:40:54;;;;;;;9.30;6.43;;;9.60;99.90;;;;;;5012216;28;20025;-72
2023/10/19 07:43:20;;;;;;;7.35;5.07;;;9.50;99.90;;;;;;5012514;28;20026;-71
2023/10/19 07:45:49;;;;;;;8.00;5.28;;;9.60;99.90;;;;;;5011616;28;20018;-71
2023/10/19 07:48:17;;;;;;;8.60;5.72;;;9.50;99.90;;;;;;5008195;28;20041;-71
2023/10/19 07:50:43;;;;;;;7.95;4.85;;;9.50;99.90;;;;;;5012413;28;20080;-71
2023/10/19 07:53:09;;;;;;;6.38;4.55;;;9.60;99.90;;;;;;5010896;28;20637;-71
2023/10/19 07:55:36;;;;;;;8.02;4.90;;;9.60;99.90;;;;;;5010795;28;20036;-71
2023/10/19 07:58:06;;;;;;;7.40;4.53;;;9.70;99.90;;;;;;5006429;28;20648;-72
2023/10/19 08:00:34;;;;;;;6.30;4.40;;;9.70;99.90;;;;;;5010072;28;20022;-71
2023/10/19 08:03:02;;;;;;;;;;;9.70;99.90;;;;;;5009645;28;20141;-71
2023/10/19 08:05:28;;;;;;;5.70;3.85;;;9.70;99.90;;;;;;5012261;28;19988;-71
2023/10/19 08:07:58;;;;;;;5.28;3.70;;;9.70;99.90;;;;;;5009615;28;20122;-71
2023/10/19 08:10:25;;;;;;;6.15;4.10;;;9.70;99.90;;;;;;5011820;28;20522;-71
2023/10/19 08:12:53;;;;;;;6.05;4.25;;;9.60;99.90;;;;;;5007411;28;20030;-71
2023/10/19 08:15:20;;;;;;;4.68;3.40;;;9.70;99.90;;;;;;5010422;28;20045;-71
2023/10/19 08:17:47;;;;;;;6.70;4.23;;;9.70;99.90;;;;;;5008047;28;20546;-71
2023/10/19 08:20:16;;;;;;;5.32;3.63;;;9.60;99.90;;;;;;5009354;28;20119;-71
2023/10/19 08:22:46;;;;;;;7.15;4.30;;;9.60;99.90;;;;;;5009882;28;20061;-71
2023/10/19 08:25:14;;;;;;;6.55;4.25;;;9.70;99.90;;;;;;5006893;28;20562;-71
2023/10/19 08:27:51;;;;;;;6.35;4.22;;;9.70;99.90;;;;;;5012112;28;20026;-72
2023/10/19 08:30:21;;;;;;;6.50;4.10;;;9.80;99.90;;;;;;5012479;28;20025;-71
2023/10/19 08:32:51;;;;;;;7.35;4.25;;;9.70;99.90;;;;;;5006646;28;20045;-71
2023/10/19 08:35:20;;;;;;;8.93;4.20;;;9.80;99.90;;;;;;5009917;28;20551;-71
2023/10/19 08:37:47;;;;;;;5.55;3.92;;;9.80;99.90;;;;;;5009802;28;20048;-71
2023/10/19 08:40:17;;;;;;;6.05;4.47;;;9.80;99.90;;;;;;5007582;28;20056;-71
2023/10/19 08:42:45;;;;;;;6.55;4.63;;;9.80;99.90;;;;;;5011788;28;20057;-71
2023/10/19 08:45:16;;;;;;;6.90;4.82;;;9.80;99.90;;;;;;5012734;28;20444;-71
2023/10/19 08:47:56;;;;;;;5.82;4.03;;;9.90;99.90;;;;;;5011243;28;20585;-71
2023/10/19 08:50:24;;;;;;;6.65;4.57;;;9.80;99.90;;;;;;5010302;28;20100;-71
2023/10/19 08:52:54;;;;;;;;;;;9.80;99.90;;;;;;5009201;28;20423;-71
2023/10/19 08:55:20;;;;;;;8.27;4.65;;;9.90;99.90;;;;;;5008401;28;20012;-71
2023/10/19 08:57:51;;;;;;;7.00;4.63;;;9.90;99.90;;;;;;5011011;28;20100;-71
2023/10/19 09:00:18;;;;;;;7.13;5.00;;;10.00;99.90;;;;;;5009158;28;20021;-71
2023/10/19 09:02:47;;;;;;;7.15;4.72;;;9.90;99.90;;;;;;5007533;28;20502;-71
2023/10/19 09:05:22;;;;;;;7.18;5.22;;;9.90;99.90;;;;;;5009829;28;20038;-71
2023/10/19 09:07:54;;;;;;;6.53;4.85;;;9.90;99.90;;;;;;5009859;28;21039;-72
2023/10/19 09:10:25;;;;;;;6.00;4.85;;;10.00;99.90;;;;;;5009102;28;20038;-71
2023/10/19 09:13:09;;;;;;;9.32;5.53;;;10.00;99.90;;;;;;5009086;28;21422;-71
2023/10/19 09:15:39;;;;;;;7.85;4.88;;;10.00;99.90;;;;;;5007866;28;20030;-70
2023/10/19 09:18:21;;;;;;;7.63;5.50;;;9.90;99.90;;;;;;5008685;28;20030;-70
2023/10/19 09:21:01;;;;;;;6.60;4.95;;;9.90;99.90;;;;;;5009731;28;20018;-73
2023/10/19 09:23:28;;;;;;;8.48;5.45;;;10.00;99.90;;;;;;5016623;28;20083;-71
2023/10/19 09:25:57;;;;;;;6.55;4.88;;;10.00;99.90;;;;;;5009854;28;20032;-71
2023/10/19 09:28:24;;;;;;;7.47;5.03;;;10.00;99.90;;;;;;5013410;28;20032;-72
2023/10/19 09:30:50;;;;;;;8.30;5.68;;;10.10;99.90;;;;;;5009465;28;20746;-71
2023/10/19 09:33:21;;;;;;;7.60;5.40;;;10.10;99.90;;;;;;5020561;28;20041;-71
2023/10/19 09:35:48;;;;;;;8.68;6.10;;;10.10;99.90;;;;;;5018816;28;20029;-72
2023/10/19 09:38:27;;;;;;;7.65;5.80;;;10.20;99.90;;;;;;5008155;28;20022;-72
2023/10/19 09:40:59;;;;;;;9.07;6.45;;;10.20;99.90;;;;;;5010030;28;20018;-72
2023/10/19 09:43:26;;;;;;;9.60;6.63;;;10.20;99.90;;;;;;5008886;28;20041;-71
2023/10/19 09:45:57;;;;;;;10.55;6.85;;;10.20;99.90;;;;;;5009353;28;20028;-71
2023/10/19 09:48:25;;;;;;;9.18;6.15;;;10.20;99.90;;;;;;5006184;28;20515;-71
2023/10/19 09:50:54;;;;;;;;;;;10.20;99.90;;;;;;5010061;28;20022;-71
2023/10/19 09:53:23;;;;;;;8.10;5.65;;;10.30;99.90;;;;;;5010226;28;19972;-73
2023/10/19 09:55:51;;;;;;;9.95;6.32;;;10.30;99.90;;;;;;5005210;28;20547;-72
2023/10/19 09:58:21;;;;;;;8.45;5.82;;;10.40;99.90;;;;;;5001917;28;20070;-72
2023/10/19 10:00:51;;;;;;;8.85;6.28;;;10.30;99.90;;;;;;5008179;28;20022;-71
2023/10/19 10:03:44;;;;;;;9.70;5.93;;;10.30;99.90;;;;;;5005497;28;20026;-72
2023/10/19 10:06:14;;;;;;;9.70;6.75;;;10.40;99.90;;;;;;5013751;28;20115;-72
2023/10/19 10:08:48;;;;;;;10.25;6.35;;;10.50;99.90;;;;;;5006339;28;20030;-72
2023/10/19 10:11:26;;;;;;;9.32;6.07;;;10.40;99.90;;;;;;5007386;28;20698;-71
2023/10/19 10:13:52;;;;;;;;;;;10.40;99.90;;;;;;5011767;28;20038;-72
2023/10/19 10:16:37;;;;;;;8.60;6.45;;;10.40;99.90;;;;;;5011377;28;19917;-72
2023/10/19 10:19:04;;;;;;;8.27;5.88;;;10.30;99.90;;;;;;5009651;28;20053;-72
2023/10/19 10:21:30;;;;;;;10.48;6.40;;;10.40;99.90;;;;;;5073526;23;20075;-65
2023/10/19 10:23:59;;;;;;;9.77;6.68;;;10.40;99.90;;;;;;5030114;28;20072;-64
2023/10/19 10:26:36;;;;;;;9.20;6.45;;;10.50;99.90;;;;;;5029906;28;20021;-64
2023/10/19 10:29:28;;;;;;;8.85;6.40;;;10.40;99.90;;;;;;5029455;28;20037;-64
2023/10/19 10:31:53;;;;;;;9.88;6.85;;;10.50;99.90;;;;;;5029190;28;20034;-64
2023/10/19 10:34:40;;;;;;;8.60;6.57;;;10.50;99.90;;;;;;5033369;28;20036;-64
2023/10/19 10:37:08;;;;;;;9.05;6.32;;;10.50;99.90;;;;;;5031279;28;20029;-64
2023/10/19 10:39:37;;;;;;;11.55;7.45;;;10.60;99.90;;;;;;5029990;28;20025;-64
2023/10/19 10:42:05;;;;;;;9.45;6.72;;;10.60;99.90;;;;;;5031559;28;20029;-64
2023/10/19 10:44:40;;;;;;;9.15;6.30;;;10.60;99.90;;;;;;5028255;28;20068;-64
2023/10/19 10:47:11;;;;;;;9.88;6.65;;;10.50;99.90;;;;;;5026156;28;20124;-64
2023/10/19 10:49:53;;;;;;;13.02;6.70;;;10.60;99.90;;;;;;5035932;28;20025;-64
2023/10/19 10:52:31;;;;;;;10.73;7.07;;;10.60;99.90;;;;;;5027932;28;20373;-64
2023/10/19 10:55:10;;;;;;;10.18;6.97;;;10.70;99.90;;;;;;5029825;28;20056;-64
2023/10/19 10:57:39;;;;;;;10.88;6.93;;;10.70;99.90;;;;;;5029414;28;20022;-64
2023/10/19 11:00:15;;;;;;;12.43;7.88;;;10.80;99.90;;;;;;5026211;28;20025;-64
2023/10/19 11:02:45;;;;;;;9.35;6.97;;;10.70;99.90;;;;;;5021097;28;22156;-64
2023/10/19 11:05:15;;;;;;;10.70;7.65;;;10.80;99.90;;;;;;5025795;28;20038;-64
2023/10/19 11:07:42;;;;;;;9.90;7.53;;;10.80;99.90;;;;;;5038273;28;20059;-64
2023/10/19 11:10:10;;;;;;;10.50;7.25;;;10.70;99.90;;;;;;5030271;28;20078;-64
2023/10/19 11:12:40;;;;;;;11.25;7.30;;;10.70;99.90;;;;;;5031383;28;20187;-64
2023/10/19 11:15:09;;;;;;;13.80;7.72;;;10.60;99.90;;;;;;5025868;28;20392;-64
2023/10/19 11:17:44;;;;;;;9.52;6.38;;;10.70;99.90;;;;;;5031789;28;20471;-64
2023/10/19 11:20:22;;;;;;;10.43;7.07;;;10.60;99.90;;;;;;5034031;28;20045;-64
2023/10/19 11:22:50;;;;;;;11.73;7.45;;;10.70;99.90;;;;;;5037144;28;20379;-64
2023/10/19 11:25:31;;;;;;;11.00;7.63;;;10.70;99.90;;;;;;5031477;28;20104;-64
2023/10/19 11:28:04;;;;;;;13.48;7.65;;;10.70;99.90;;;;;;5038141;28;20266;-64
2023/10/19 11:30:31;;;;;;;12.48;7.07;;;10.70;99.90;;;;;;5040586;28;20032;-64
2023/10/19 11:33:01;;;;;;;13.10;7.65;;;10.80;99.90;;;;;;5033065;28;20025;-64
2023/10/19 11:35:29;;;;;;;12.30;7.55;;;10.80;99.90;;;;;;5032182;28;20487;-64
2023/10/19 11:38:00;;;;;;;12.70;8.00;;;10.90;99.90;;;;;;5029067;28;20038;-64
2023/10/19 11:40:28;;;;;;;12.65;8.70;;;10.80;99.90;;;;;;5029074;28;20486;-64
2023/10/19 11:43:00;;;;;;;12.63;8.27;;;10.80;99.90;;;;;;5037219;28;20029;-64
2023/10/19 11:45:26;;;;;;;13.43;9.05;;;10.90;99.90;;;;;;5030028;28;20033;-64
2023/10/19 11:47:56;;;;;;;13.32;8.75;;;10.90;99.90;;;;;;5030119;28;20858;-64
2023/10/19 11:50:24;;;;;;;13.43;8.35;;;10.80;99.90;;;;;;5032668;28;20032;-64
2023/10/19 11:52:50;;;;;;;12.05;7.57;;;10.80;99.90;;;;;;5027659;28;20056;-64
2023/10/19 11:55:15;;;;;;;13.68;9.27;;;10.70;99.90;;;;;;5034579;28;20499;-64
2023/10/19 11:57:44;;;;;;;14.52;9.70;;;10.70;99.90;;;;;;5022781;28;20029;-64
2023/10/19 12:00:24;;;;;;;13.13;8.85;;;10.70;99.90;;;;;;5032867;28;20480;-64
2023/10/19 12:02:55;;;;;;;16.50;9.55;;;10.70;99.90;;;;;;5033078;28;20096;-64
2023/10/19 12:05:25;;;;;;;14.65;9.10;;;10.70;99.90;;;;;;5033062;28;20411;-64
2023/10/19 12:07:51;;;;;;;13.75;9.43;;;10.70;99.90;;;;;;5031278;28;20022;-64
2023/10/19 12:10:20;;;;;;;14.90;9.18;;;10.70;99.90;;;;;;5029345;28;20037;-64
2023/10/19 12:12:45;;;;;;;14.50;9.32;;;10.70;99.90;;;;;;5028443;28;20059;-64
2023/10/19 12:15:12;;;;;;;14.07;9.55;;;10.70;99.90;;;;;;5029375;28;20061;-64
2023/10/19 12:17:38;;;;;;;15.40;10.02;;;10.70;99.90;;;;;;5033572;28;20547;-64
2023/10/19 12:20:06;;;;;;;15.05;9.55;;;10.70;99.90;;;;;;5037057;28;20133;-64
2023/10/19 12:22:37;;;;;;;15.88;9.88;;;10.70;99.90;;;;;;5030558;28;20454;-64
2023/10/19 12:25:06;;;;;;;15.85;10.38;;;10.80;99.90;;;;;;5022428;28;20387;-64
2023/10/19 12:27:32;;;;;;;16.27;9.70;;;10.80;99.90;;;;;;5025244;28;20025;-64
2023/10/19 12:29:57;;;;;;;18.10;10.43;;;10.80;99.90;;;;;;5023203;28;20042;-64
2023/10/19 12:32:25;;;;;;;18.52;11.20;;;10.80;99.90;;;;;;5023025;28;20084;-64
2023/10/19 12:34:53;;;;;;;18.70;11.23;;;10.80;99.90;;;;;;5028780;28;20036;-75
2023/10/19 12:37:19;;;;;;;21.85;12.07;;;10.80;99.90;;;;;;5036432;28;20120;-74
2023/10/19 12:39:48;;;;;;;20.15;11.25;;;10.80;99.90;;;;;;5027079;28;20059;-74
2023/10/19 12:42:14;;;;;;;21.70;13.50;;;10.80;99.90;;;;;;5029699;28;20033;-74
2023/10/19 12:44:43;;;;;;;19.85;12.27;;;10.80;99.90;;;;;;5027396;28;20022;-71
2023/10/19 12:47:13;;;;;;;18.98;12.05;;;10.80;99.90;;;;;;5029812;28;20042;-64
2023/10/19 12:49:42;;;;;;;23.45;12.23;;;10.80;99.90;;;;;;5026903;28;20061;-64
2023/10/19 12:52:08;;;;;;;22.05;11.70;;;10.80;99.90;;;;;;5033234;28;20589;-64
2023/10/19 12:54:35;;;;;;;19.77;12.43;;;10.80;99.90;;;;;;5025938;28;20761;-64
2023/10/19 12:57:03;;;;;;;24.77;11.83;;;10.80;99.90;;;;;;5034860;28;20161;-63
2023/10/19 12:59:29;;;;;;;21.50;13.07;;;10.90;99.90;;;;;;5036542;28;20075;-63
2023/10/19 13:02:02;;;;;;;22.35;12.82;;;10.90;99.90;;;;;;5025980;28;20061;-64
2023/10/19 13:04:33;;;;;;;21.67;12.52;;;10.90;99.90;;;;;;5023665;28;20033;-64
2023/10/19 13:06:59;;;;;;;22.13;12.23;;;11.00;99.90;;;;;;5030298;28;20037;-64
2023/10/19 13:09:31;;;;;;;26.88;13.85;;;11.00;99.90;;;;;;5038889;28;20037;-64
2023/10/19 13:12:00;;;;;;;27.75;13.25;;;10.90;99.90;;;;;;5031269;28;20041;-64
2023/10/19 13:14:26;;;;;;;25.48;13.15;;;10.90;99.90;;;;;;5035663;28;20094;-64
2023/10/19 13:16:54;;;;;;;21.50;12.70;;;10.80;99.90;;;;;;5023641;28;20140;-64
2023/10/19 13:19:26;;;;;;;21.77;12.65;;;10.70;99.90;;;;;;5027614;28;20029;-64
2023/10/19 13:22:00;;;;;;;22.70;12.88;;;10.80;99.90;;;;;;5044844;28;20029;-64
2023/10/19 13:24:27;;;;;;;24.13;13.25;;;10.80;99.90;;;;;;5029529;28;20023;-64
2023/10/19 13:26:55;;;;;;;23.23;12.93;;;10.70;99.90;;;;;;5035035;28;20494;-64